Time;durP1;ratioP1;P1;durP2;ratioP2;P2;SDS_P1;SDS_P2;PMS_P1;PMS_P2;Temp;Humidity;BMP_temperature;BMP_pressure;BME280_temperature;BME280_humidity;BME280_pressure;Samples;Min_cycle;Max_cycle;Signal;HPM_P1;HPM_P2
2022/06/16 00:00:40;;;;;;;3.78;2.33;;;24.90;96.70;;;;;;4844596;29;20064;-85
2022/06/16 00:03:09;;;;;;;4.97;2.25;;;24.90;96.70;;;;;;4846272;29;20056;-84
2022/06/16 00:05:42;;;;;;;6.03;2.65;;;24.80;96.70;;;;;;4848302;29;20046;-83
2022/06/16 00:08:14;;;;;;;4.05;2.33;;;24.70;96.70;;;;;;4861569;29;20057;-84
2022/06/16 00:11:16;;;;;;;5.43;2.70;;;24.60;96.70;;;;;;4862004;29;20046;-83
2022/06/16 00:13:32;;;;;;;5.65;2.38;;;24.60;96.70;;;;;;4847011;29;20049;-85
2022/06/16 00:16:00;;;;;;;6.35;2.70;;;24.50;96.70;;;;;;4861738;29;20550;-84
2022/06/16 00:18:29;;;;;;;4.68;2.38;;;24.60;96.70;;;;;;4845566;29;20046;-85
2022/06/16 00:20:59;;;;;;;3.05;2.40;;;24.60;96.70;;;;;;4846683;29;20128;-85
2022/06/16 00:23:28;;;;;;;6.00;2.50;;;24.60;96.70;;;;;;4847664;29;20050;-85
2022/06/16 00:26:03;;;;;;;5.32;2.35;;;24.60;96.70;;;;;;4848180;29;20079;-85
2022/06/16 00:28:31;;;;;;;4.85;2.83;;;24.60;96.70;;;;;;4845479;29;20102;-85
2022/06/16 00:31:04;;;;;;;6.20;2.47;;;24.60;96.70;;;;;;4857604;29;20149;-84
2022/06/16 00:33:33;;;;;;;6.13;2.47;;;24.60;96.70;;;;;;4860102;29;20923;-85
2022/06/16 00:36:03;;;;;;;5.20;2.60;;;24.50;96.70;;;;;;4863355;29;20053;-85
2022/06/16 00:38:32;;;;;;;4.93;2.28;;;24.40;96.70;;;;;;4843640;29;20057;-85
2022/06/16 00:41:00;;;;;;;5.10;2.78;;;24.40;96.70;;;;;;4848640;29;20037;-86
2022/06/16 00:43:29;;;;;;;3.50;1.98;;;24.40;96.70;;;;;;4864163;29;20072;-86
2022/06/16 00:46:01;;;;;;;4.20;2.15;;;24.40;96.70;;;;;;4850100;29;20052;-86
2022/06/16 00:48:33;;;;;;;6.70;2.97;;;24.40;96.70;;;;;;4862848;29;20056;-86
2022/06/16 00:51:07;;;;;;;4.20;2.30;;;24.40;96.70;;;;;;4864121;29;20057;-85
2022/06/16 00:53:38;;;;;;;4.00;2.38;;;24.30;96.70;;;;;;4863084;29;20054;-85
2022/06/16 00:56:09;;;;;;;5.75;2.45;;;24.40;96.70;;;;;;4862219;29;20057;-84
2022/06/16 00:58:40;;;;;;;5.03;2.28;;;24.30;96.70;;;;;;4848116;29;20056;-86
2022/06/16 01:01:10;;;;;;;4.20;2.20;;;24.40;96.70;;;;;;4860194;29;20058;-85
2022/06/16 01:06:30;;;;;;;3.60;1.70;;;24.30;96.70;;;;;;4863146;29;20050;-85
2022/06/16 01:09:01;;;;;;;3.63;2.10;;;24.30;96.70;;;;;;4866376;29;20049;-85
2022/06/16 01:14:55;;;;;;;2.70;1.95;;;24.30;96.70;;;;;;4867136;29;20058;-85
2022/06/16 01:17:31;;;;;;;3.08;1.80;;;24.30;96.70;;;;;;4855359;29;20575;-85
2022/06/16 01:20:11;;;;;;;2.97;1.92;;;24.20;96.70;;;;;;4863714;29;20054;-85
2022/06/16 01:23:03;;;;;;;2.75;2.03;;;24.20;96.70;;;;;;4851179;29;20342;-84
2022/06/16 01:25:46;;;;;;;3.33;2.10;;;24.10;96.70;;;;;;4848586;29;20058;-84
2022/06/16 01:28:20;;;;;;;3.53;2.20;;;24.10;96.70;;;;;;4845780;29;20057;-85
2022/06/16 01:30:57;;;;;;;5.60;2.05;;;24.10;96.70;;;;;;4851014;29;20085;-85
2022/06/16 01:33:35;;;;;;;3.67;2.00;;;24.10;96.70;;;;;;4862177;29;20061;-85
2022/06/16 01:36:11;;;;;;;2.83;2.15;;;24.10;96.70;;;;;;4848489;29;20176;-85
2022/06/16 01:38:46;;;;;;;5.03;2.10;;;24.00;96.70;;;;;;4865563;29;20141;-85
2022/06/16 01:41:22;;;;;;;4.22;2.25;;;23.90;96.70;;;;;;4847011;29;20057;-85
2022/06/16 01:43:55;;;;;;;3.27;2.03;;;23.90;96.70;;;;;;4865817;29;20149;-84
2022/06/16 01:46:27;;;;;;;4.47;2.38;;;24.00;96.70;;;;;;4866096;29;20041;-85
2022/06/16 01:49:09;;;;;;;4.45;2.75;;;23.90;96.70;;;;;;4864889;29;20069;-85
2022/06/16 01:51:41;;;;;;;3.13;2.10;;;24.00;96.70;;;;;;4861589;29;20239;-85
2022/06/16 01:54:15;;;;;;;5.90;2.70;;;23.90;96.70;;;;;;4866147;29;20443;-85
2022/06/16 01:56:49;;;;;;;3.85;2.25;;;23.90;96.70;;;;;;4865314;29;20055;-83
2022/06/16 01:59:21;;;;;;;5.20;2.78;;;23.90;96.70;;;;;;4852213;29;20089;-85
2022/06/16 02:01:56;;;;;;;4.63;2.50;;;23.90;96.70;;;;;;4863367;29;20057;-85
2022/06/16 02:04:30;;;;;;;4.10;2.55;;;23.90;96.70;;;;;;4865447;29;20054;-85
2022/06/16 02:07:04;;;;;;;4.97;2.67;;;23.70;96.70;;;;;;4862350;29;20064;-85
2022/06/16 02:09:37;;;;;;;3.25;2.40;;;23.80;96.70;;;;;;4865713;29;20069;-85
2022/06/16 02:12:11;;;;;;;4.28;2.83;;;23.80;96.70;;;;;;4851394;29;20157;-85
2022/06/16 02:14:45;;;;;;;5.88;3.22;;;23.80;96.70;;;;;;4850878;29;20050;-86
2022/06/16 02:17:34;;;;;;;4.50;3.20;;;23.90;96.70;;;;;;4855360;29;20050;-85
2022/06/16 02:20:03;;;;;;;4.10;3.33;;;24.00;96.70;;;;;;4849754;29;20121;-84
2022/06/16 02:22:31;;;;;;;5.97;3.50;;;23.90;96.70;;;;;;4866707;29;20145;-85
2022/06/16 02:24:59;;;;;;;5.00;2.72;;;23.80;96.70;;;;;;4866263;29;20053;-85
2022/06/16 02:27:27;;;;;;;4.43;2.55;;;23.80;96.70;;;;;;4863645;29;20049;-84
2022/06/16 02:29:56;;;;;;;4.10;2.80;;;23.60;96.70;;;;;;4829663;29;20057;-84
2022/06/16 02:32:38;;;;;;;5.07;2.90;;;23.50;96.70;;;;;;4863710;29;20068;-82
2022/06/16 02:35:18;;;;;;;6.63;2.83;;;23.40;96.70;;;;;;4862763;29;20057;-82
2022/06/16 02:38:05;;;;;;;3.90;2.70;;;23.30;96.70;;;;;;4861848;29;20590;-82
2022/06/16 02:40:54;;;;;;;3.53;2.30;;;23.30;96.70;;;;;;4856587;29;20385;-82
2022/06/16 02:43:50;;;;;;;3.33;2.28;;;23.30;96.70;;;;;;4848914;29;20507;-83
2022/06/16 02:46:31;;;;;;;3.80;2.08;;;23.30;96.70;;;;;;4856885;29;20076;-83
2022/06/16 02:49:10;;;;;;;2.53;2.17;;;23.30;96.70;;;;;;4862997;29;20058;-83
2022/06/16 02:51:43;;;;;;;3.38;2.22;;;23.30;96.70;;;;;;4850098;29;20053;-84
2022/06/16 02:54:22;;;;;;;3.88;2.40;;;23.30;96.70;;;;;;4848613;29;20065;-84
2022/06/16 02:56:57;;;;;;;6.47;2.67;;;23.30;96.70;;;;;;4847809;29;20519;-83
2022/06/16 02:59:31;;;;;;;3.95;2.50;;;23.20;96.70;;;;;;4859294;29;20068;-83
2022/06/16 03:02:03;;;;;;;3.50;2.08;;;23.10;96.70;;;;;;4849461;29;20057;-83
2022/06/16 03:04:38;;;;;;;4.22;2.08;;;23.20;96.70;;;;;;4862732;29;20149;-83
2022/06/16 03:07:06;;;;;;;4.35;2.50;;;23.20;96.70;;;;;;4846732;29;20533;-84
2022/06/16 03:09:37;;;;;;;4.95;2.45;;;23.20;96.70;;;;;;4857902;29;20053;-84
2022/06/16 03:12:07;;;;;;;4.68;1.92;;;23.10;96.70;;;;;;4846364;29;20520;-84
2022/06/16 03:14:37;;;;;;;2.72;2.30;;;23.00;96.70;;;;;;4863386;29;20507;-83
2022/06/16 03:17:07;;;;;;;4.03;1.92;;;23.00;96.70;;;;;;4863919;29;20096;-83
2022/06/16 03:19:38;;;;;;;4.65;3.00;;;22.90;96.70;;;;;;4861550;29;20053;-83
2022/06/16 03:22:07;;;;;;;5.07;2.42;;;22.80;96.70;;;;;;4861577;29;20049;-84
2022/06/16 03:24:36;;;;;;;4.40;2.72;;;22.80;96.70;;;;;;4847262;29;20051;-81
2022/06/16 03:27:05;;;;;;;4.43;2.80;;;22.90;96.70;;;;;;4860365;29;20061;-83
2022/06/16 03:29:39;;;;;;;3.72;2.83;;;22.90;96.70;;;;;;4859138;29;20141;-84
2022/06/16 03:32:09;;;;;;;4.00;2.75;;;22.90;96.70;;;;;;4861262;29;20076;-83
2022/06/16 03:34:39;;;;;;;6.28;2.97;;;22.90;96.70;;;;;;4859786;29;20050;-83
2022/06/16 03:37:09;;;;;;;4.20;2.70;;;23.00;96.70;;;;;;4846915;29;20058;-83
2022/06/16 03:39:42;;;;;;;5.15;3.20;;;23.00;96.70;;;;;;4848449;29;20089;-83
2022/06/16 03:42:11;;;;;;;7.43;3.10;;;23.10;96.70;;;;;;4863594;29;20064;-84
2022/06/16 03:44:39;;;;;;;5.90;2.88;;;23.10;96.70;;;;;;4861353;29;20106;-83
2022/06/16 03:47:10;;;;;;;6.30;2.75;;;23.20;96.70;;;;;;4842874;29;20060;-83
2022/06/16 03:49:43;;;;;;;3.97;2.88;;;23.20;96.70;;;;;;4857385;29;20194;-83
2022/06/16 03:52:11;;;;;;;4.78;2.67;;;23.30;96.70;;;;;;4862646;29;20057;-84
2022/06/16 03:54:47;;;;;;;3.87;2.50;;;23.30;96.70;;;;;;4861091;29;20448;-84
2022/06/16 03:57:16;;;;;;;6.05;2.85;;;23.30;96.70;;;;;;4861025;29;20061;-82
2022/06/16 03:59:44;;;;;;;7.90;3.03;;;23.40;96.70;;;;;;4841809;29;20069;-84
2022/06/16 04:02:22;;;;;;;5.10;2.53;;;23.40;96.70;;;;;;4858661;29;20060;-83
2022/06/16 04:04:52;;;;;;;3.40;2.80;;;23.30;96.70;;;;;;4860885;29;20057;-83
2022/06/16 04:07:21;;;;;;;4.53;2.50;;;23.40;96.70;;;;;;4859685;29;20133;-83
2022/06/16 04:10:03;;;;;;;3.75;2.33;;;23.30;96.70;;;;;;4859349;29;20065;-83
2022/06/16 04:12:33;;;;;;;3.30;2.35;;;23.30;96.70;;;;;;4861726;29;20057;-83
2022/06/16 04:15:03;;;;;;;5.40;2.47;;;23.30;96.70;;;;;;4861381;29;20049;-84
2022/06/16 04:17:31;;;;;;;4.75;2.78;;;23.30;96.70;;;;;;4860123;29;20046;-82
2022/06/16 04:20:15;;;;;;;7.47;2.30;;;23.30;96.70;;;;;;4847268;29;20049;-83
2022/06/16 04:22:52;;;;;;;6.03;2.50;;;23.30;96.70;;;;;;4846482;29;20144;-82
2022/06/16 04:25:30;;;;;;;4.70;2.13;;;23.30;96.70;;;;;;4846650;29;21016;-83
2022/06/16 04:28:12;;;;;;;6.28;2.15;;;23.20;96.70;;;;;;4857452;29;20116;-83
2022/06/16 04:30:58;;;;;;;4.75;2.47;;;23.30;96.70;;;;;;4855679;29;20079;-83
2022/06/16 04:33:30;;;;;;;4.43;2.33;;;23.30;96.70;;;;;;4845985;29;20456;-83
2022/06/16 04:36:02;;;;;;;8.15;3.00;;;23.30;96.70;;;;;;4860277;29;20062;-83
2022/06/16 04:38:35;;;;;;;6.57;2.90;;;23.40;96.70;;;;;;4847252;29;20564;-82
2022/06/16 04:41:03;;;;;;;6.93;3.15;;;23.40;96.70;;;;;;4865352;29;20133;-83
2022/06/16 04:43:33;;;;;;;6.65;3.13;;;23.40;96.70;;;;;;4849553;29;20789;-83
2022/06/16 04:46:04;;;;;;;5.25;3.03;;;23.40;96.70;;;;;;4863739;29;20065;-84
2022/06/16 04:48:41;;;;;;;5.40;3.22;;;23.40;96.70;;;;;;4855221;29;20421;-83
2022/06/16 04:51:16;;;;;;;6.70;3.20;;;23.40;96.70;;;;;;4866607;29;20054;-83
2022/06/16 04:53:48;;;;;;;10.90;3.42;;;23.50;96.70;;;;;;4865342;29;20072;-84
2022/06/16 04:56:49;;;;;;;7.22;3.38;;;23.60;96.70;;;;;;4847608;29;20053;-84
2022/06/16 04:59:29;;;;;;;5.20;3.17;;;23.60;96.70;;;;;;4844903;29;20153;-84
2022/06/16 05:02:15;;;;;;;5.38;2.95;;;23.60;96.70;;;;;;4850373;29;20121;-85
2022/06/16 05:04:59;;;;;;;5.35;2.80;;;23.70;96.70;;;;;;4853313;29;20057;-83
2022/06/16 05:08:01;;;;;;;5.65;3.15;;;23.80;96.70;;;;;;4849918;29;20527;-86
2022/06/16 05:10:58;;;;;;;7.53;3.15;;;23.80;96.70;;;;;;4842747;29;20140;-85
2022/06/16 05:13:37;;;;;;;5.32;3.20;;;23.80;96.70;;;;;;4838621;29;20472;-85
2022/06/16 05:16:26;;;;;;;6.88;3.03;;;23.80;96.70;;;;;;4824123;29;20531;-86
2022/06/16 05:19:20;;;;;;;5.22;2.88;;;23.80;96.70;;;;;;4800462;29;20860;-86
2022/06/16 05:22:10;;;;;;;4.60;3.00;;;23.90;96.70;;;;;;4747838;30;20056;-85
2022/06/16 05:25:14;;;;;;;9.50;3.58;;;23.90;96.70;;;;;;4738595;30;20073;-85
2022/06/16 05:30:42;;;;;;;5.93;3.37;;;23.80;96.70;;;;;;5094278;27;20382;-86
2022/06/16 05:33:21;;;;;;;4.65;3.38;;;24.00;96.70;;;;;;5065886;28;20044;-85
2022/06/16 05:35:57;;;;;;;7.20;3.28;;;24.00;96.70;;;;;;5069419;28;20414;-85
2022/06/16 05:38:45;;;;;;;4.68;3.03;;;24.00;96.70;;;;;;5057127;28;20060;-85
2022/06/16 05:41:32;;;;;;;;;;;24.00;96.70;;;;;;5068786;28;20055;-86
2022/06/16 05:44:26;;;;;;;6.85;4.30;;;24.10;96.70;;;;;;5066228;28;19924;-86
2022/06/16 05:47:04;;;;;;;9.68;5.35;;;24.10;96.70;;;;;;5065012;28;20044;-86
2022/06/16 05:49:38;;;;;;;15.02;5.80;;;24.00;96.70;;;;;;5067383;28;20051;-84
2022/06/16 05:52:11;;;;;;;9.65;4.88;;;24.10;96.70;;;;;;5047020;28;20076;-81
2022/06/16 05:54:42;;;;;;;11.10;5.88;;;24.20;96.70;;;;;;5047054;28;20121;-85
2022/06/16 05:57:11;;;;;;;10.30;5.75;;;24.40;96.70;;;;;;5061252;28;20059;-82
2022/06/16 05:59:40;;;;;;;8.20;4.80;;;24.60;96.70;;;;;;5062132;28;20041;-82
2022/06/16 06:02:16;;;;;;;8.77;4.30;;;24.60;96.70;;;;;;5060610;28;20063;-86
2022/06/16 06:04:47;;;;;;;8.85;3.95;;;24.80;96.70;;;;;;5052782;28;20131;-83
2022/06/16 06:07:16;;;;;;;11.60;3.90;;;25.00;96.70;;;;;;5083700;28;20136;-81
2022/06/16 06:18:21;;;;;;;4.15;2.90;;;25.10;96.70;;;;;;5062522;28;20135;-82
2022/06/16 06:20:50;;;;;;;6.72;3.25;;;25.20;96.70;;;;;;5054501;28;20048;-81
2022/06/16 06:23:18;;;;;;;9.13;3.88;;;25.20;96.70;;;;;;5067784;28;20413;-81
2022/06/16 06:25:46;;;;;;;5.15;3.70;;;25.20;96.70;;;;;;5063478;28;20040;-83
2022/06/16 06:28:20;;;;;;;5.68;3.67;;;25.20;96.70;;;;;;5060008;28;20550;-80
2022/06/16 06:30:48;;;;;;;7.32;4.38;;;25.30;96.70;;;;;;5053278;28;20064;-82
2022/06/16 06:33:17;;;;;;;5.18;4.25;;;25.40;96.70;;;;;;5044206;28;20072;-81
2022/06/16 06:35:46;;;;;;;7.20;3.95;;;25.50;96.70;;;;;;5079439;28;20197;-81
2022/06/16 06:38:16;;;;;;;7.90;3.85;;;25.60;96.70;;;;;;5062028;28;20048;-81
2022/06/16 06:40:44;;;;;;;5.57;4.00;;;25.60;96.70;;;;;;5061049;28;20048;-82
2022/06/16 06:43:13;;;;;;;5.20;3.42;;;25.60;96.70;;;;;;5033612;28;20526;-82
2022/06/16 06:45:41;;;;;;;5.68;3.65;;;25.60;96.70;;;;;;5046149;28;20048;-82
2022/06/16 06:48:09;;;;;;;6.88;2.55;;;25.60;96.70;;;;;;5046447;28;20516;-80
2022/06/16 06:50:40;;;;;;;7.60;3.15;;;25.60;96.70;;;;;;5066668;28;20032;-81
2022/06/16 06:53:10;;;;;;;8.38;2.50;;;25.60;96.70;;;;;;5077629;28;20114;-81
2022/06/16 06:55:42;;;;;;;4.78;2.47;;;25.70;96.70;;;;;;5048770;28;20128;-81
2022/06/16 06:58:16;;;;;;;4.22;2.78;;;25.70;96.70;;;;;;5073739;28;20055;-80
2022/06/16 07:00:44;;;;;;;3.90;2.60;;;25.80;96.70;;;;;;5031945;28;20058;-81
2022/06/16 07:03:13;;;;;;;5.72;2.33;;;25.80;96.70;;;;;;5068060;28;20139;-83
2022/06/16 07:05:41;;;;;;;5.28;2.63;;;25.90;96.70;;;;;;5056079;28;20147;-84
2022/06/16 07:08:10;;;;;;;4.53;2.88;;;26.00;96.70;;;;;;5063161;28;20486;-84
2022/06/16 07:10:40;;;;;;;8.57;3.08;;;26.00;96.70;;;;;;5054587;28;20131;-83
2022/06/16 07:13:13;;;;;;;5.30;2.90;;;26.00;96.70;;;;;;5046326;28;20574;-81
2022/06/16 07:15:42;;;;;;;5.70;3.10;;;26.10;96.70;;;;;;5046544;28;20045;-81
2022/06/16 07:18:10;;;;;;;5.13;2.92;;;26.20;96.70;;;;;;5044012;28;20079;-81
2022/06/16 07:20:39;;;;;;;8.50;2.88;;;26.10;96.70;;;;;;5046357;28;20044;-82
2022/06/16 07:23:07;;;;;;;14.43;3.80;;;26.10;96.70;;;;;;5045777;28;20108;-83
2022/06/16 07:25:37;;;;;;;5.57;3.00;;;26.20;96.70;;;;;;5045524;28;20064;-82
2022/06/16 07:28:06;;;;;;;6.03;3.35;;;26.20;96.70;;;;;;5044098;28;20055;-82
2022/06/16 07:30:34;;;;;;;5.30;3.00;;;26.30;96.70;;;;;;5030837;28;20052;-81
2022/06/16 07:33:03;;;;;;;6.00;3.20;;;26.40;96.70;;;;;;5051163;28;20227;-81
2022/06/16 07:35:31;;;;;;;6.05;3.38;;;26.50;96.70;;;;;;5039556;28;20044;-81
2022/06/16 07:37:59;;;;;;;5.85;2.70;;;26.50;96.70;;;;;;5071680;28;20043;-80
2022/06/16 07:40:28;;;;;;;7.07;3.20;;;26.60;96.70;;;;;;5073424;28;20531;-82
2022/06/16 07:42:58;;;;;;;5.53;2.95;;;26.70;96.70;;;;;;5067393;28;20527;-81
2022/06/16 07:45:28;;;;;;;8.85;2.95;;;26.70;96.70;;;;;;5071837;28;20045;-81
2022/06/16 07:48:00;;;;;;;4.90;2.55;;;26.80;96.70;;;;;;5073189;28;20052;-82
2022/06/16 07:50:29;;;;;;;5.60;2.22;;;26.90;96.70;;;;;;5054530;28;20446;-82
2022/06/16 07:52:57;;;;;;;6.10;3.13;;;26.80;96.70;;;;;;5045007;28;20578;-81
2022/06/16 07:55:25;;;;;;;7.70;3.72;;;26.90;96.70;;;;;;5050909;28;20390;-80
2022/06/16 07:57:53;;;;;;;6.97;3.00;;;27.10;96.70;;;;;;5061253;28;20591;-80
2022/06/16 08:00:25;;;;;;;4.88;3.72;;;27.20;96.70;;;;;;5036687;28;20048;-80
2022/06/16 08:02:55;;;;;;;8.15;4.18;;;27.30;96.70;;;;;;5068214;28;20052;-80
2022/06/16 08:05:24;;;;;;;13.07;5.97;;;27.50;96.70;;;;;;5053918;28;20076;-81
2022/06/16 08:07:52;;;;;;;7.60;3.40;;;27.50;96.70;;;;;;5048356;28;20552;-81
2022/06/16 08:10:23;;;;;;;9.68;3.05;;;27.60;96.70;;;;;;5048621;28;20501;-80
2022/06/16 08:12:52;;;;;;;8.05;2.90;;;27.70;96.70;;;;;;5043219;28;20059;-81
2022/06/16 08:15:22;;;;;;;7.28;2.97;;;27.80;96.70;;;;;;5064079;28;20036;-81
2022/06/16 08:17:54;;;;;;;6.75;2.70;;;27.80;96.70;;;;;;5061491;28;20128;-80
2022/06/16 08:20:24;;;;;;;6.25;2.60;;;27.90;96.70;;;;;;5065480;28;20109;-80
2022/06/16 08:22:58;;;;;;;;;;;28.00;96.70;;;;;;5045801;28;20044;-80
2022/06/16 08:25:27;;;;;;;4.00;2.75;;;28.10;96.70;;;;;;5027121;28;19925;-80
2022/06/16 08:27:55;;;;;;;4.20;2.17;;;28.10;96.70;;;;;;5030221;28;20048;-79
2022/06/16 08:30:25;;;;;;;4.60;2.53;;;28.20;96.70;;;;;;5060106;28;20136;-81
2022/06/16 08:32:54;;;;;;;5.63;2.28;;;28.20;96.70;;;;;;5045995;28;20514;-80
2022/06/16 08:35:23;;;;;;;5.63;2.63;;;28.20;96.70;;;;;;5061762;28;20376;-80
2022/06/16 08:37:51;;;;;;;8.25;2.75;;;28.30;96.70;;;;;;5032547;28;20888;-80
2022/06/16 08:40:20;;;;;;;3.97;2.10;;;28.40;96.70;;;;;;5045676;28;20040;-80
2022/06/16 08:42:51;;;;;;;3.97;2.40;;;28.40;96.70;;;;;;5070887;28;20052;-80
2022/06/16 08:45:31;;;;;;;6.38;2.20;;;28.50;96.70;;;;;;5043946;28;20044;-80
2022/06/16 08:48:17;;;;;;;3.25;2.08;;;28.60;96.70;;;;;;5066248;28;20670;-81
2022/06/16 08:50:54;;;;;;;4.63;2.47;;;28.60;96.70;;;;;;5043272;28;20717;-81
2022/06/16 08:53:39;;;;;;;5.60;2.33;;;28.60;96.70;;;;;;5076417;28;20044;-80
2022/06/16 08:56:12;;;;;;;6.18;2.10;;;28.70;96.70;;;;;;5042873;28;20052;-80
2022/06/16 08:58:46;;;;;;;4.68;2.80;;;28.70;96.70;;;;;;5044814;28;20429;-80
2022/06/16 09:01:31;;;;;;;4.45;1.98;;;28.80;96.70;;;;;;5067677;28;20501;-80
2022/06/16 09:04:07;;;;;;;4.40;2.53;;;28.80;96.70;;;;;;5058641;28;20094;-84
2022/06/16 09:06:45;;;;;;;5.20;2.60;;;28.70;96.70;;;;;;5045412;28;20052;-85
2022/06/16 09:10:14;;;;;;;6.78;3.03;;;28.60;96.70;;;;;;5046915;28;20055;-86
2022/06/16 09:12:23;;;;;;;5.60;2.75;;;28.60;96.70;;;;;;5055163;28;20043;-83
2022/06/16 09:15:11;;;;;;;5.93;2.55;;;28.60;96.70;;;;;;5047479;28;20043;-83
2022/06/16 09:17:53;;;;;;;9.32;2.65;;;28.70;96.70;;;;;;5062453;28;20040;-83
2022/06/16 09:20:54;;;;;;;5.93;2.17;;;28.70;96.70;;;;;;5046966;28;20561;-82
2022/06/16 09:23:42;;;;;;;7.10;1.98;;;28.90;96.70;;;;;;4982291;28;20056;-82
2022/06/16 09:26:19;;;;;;;3.85;2.00;;;29.10;96.70;;;;;;5017560;28;20617;-82
2022/06/16 09:28:52;;;;;;;14.70;3.00;;;29.20;96.70;;;;;;5013010;28;20255;-82
2022/06/16 09:31:26;;;;;;;9.48;2.75;;;29.20;96.70;;;;;;5021317;28;20065;-81
2022/06/16 09:34:02;;;;;;;5.50;2.13;;;29.20;96.70;;;;;;5000769;28;20558;-81
2022/06/16 09:36:35;;;;;;;4.30;2.17;;;29.20;96.70;;;;;;4993891;28;20069;-81
2022/06/16 09:39:09;;;;;;;4.50;2.10;;;29.20;96.70;;;;;;4982840;28;20576;-81
2022/06/16 09:44:56;;;;;;;6.32;2.17;;;29.40;96.70;;;;;;4998536;28;20574;-81
2022/06/16 09:47:27;;;;;;;4.22;2.10;;;29.50;96.70;;;;;;5012685;28;20044;-81
2022/06/16 09:50:02;;;;;;;3.78;2.35;;;29.60;96.70;;;;;;5043610;28;20565;-81
2022/06/16 09:52:42;;;;;;;9.10;1.98;;;29.70;96.70;;;;;;5041947;28;20053;-81
2022/06/16 09:55:17;;;;;;;5.25;2.10;;;29.70;96.70;;;;;;5045542;28;20049;-82
2022/06/16 09:57:48;;;;;;;4.47;2.58;;;29.70;96.70;;;;;;5042026;28;20065;-82
2022/06/16 10:00:20;;;;;;;5.50;1.98;;;29.70;96.70;;;;;;5045979;28;20164;-82
2022/06/16 10:02:52;;;;;;;6.75;2.55;;;29.80;96.70;;;;;;5053493;28;20056;-82
2022/06/16 10:05:34;;;;;;;5.97;2.47;;;29.90;96.70;;;;;;5033554;28;20044;-84
2022/06/16 10:08:08;;;;;;;6.28;2.05;;;29.90;96.70;;;;;;5043285;28;20060;-83
2022/06/16 10:10:42;;;;;;;4.60;2.22;;;30.10;96.70;;;;;;5052690;28;20056;-83
2022/06/16 10:13:25;;;;;;;4.68;2.10;;;30.20;96.70;;;;;;5063338;28;20566;-83
2022/06/16 10:16:00;;;;;;;4.95;2.28;;;30.40;96.70;;;;;;5055245;28;20056;-84
2022/06/16 10:18:29;;;;;;;3.90;1.85;;;30.50;96.70;;;;;;5064724;28;20103;-85
2022/06/16 10:20:59;;;;;;;3.38;1.98;;;30.50;96.70;;;;;;5062328;28;20036;-83
2022/06/16 10:23:30;;;;;;;5.38;2.00;;;30.60;96.70;;;;;;5062368;28;20071;-83
2022/06/16 10:26:03;;;;;;;5.20;1.70;;;30.70;96.70;;;;;;5063978;28;20045;-80
2022/06/16 10:28:34;;;;;;;6.07;1.90;;;30.80;96.70;;;;;;5056485;28;20052;-85
2022/06/16 10:31:04;;;;;;;1.77;1.48;;;31.10;96.70;;;;;;5052779;28;20056;-83
2022/06/16 10:33:34;;;;;;;4.72;1.73;;;31.20;96.70;;;;;;5067677;28;20040;-85
2022/06/16 10:36:17;;;;;;;2.60;1.90;;;31.20;96.70;;;;;;5039211;28;20517;-84
2022/06/16 10:39:03;;;;;;;2.35;1.88;;;31.20;96.70;;;;;;5050447;28;20048;-84
2022/06/16 10:41:36;;;;;;;6.47;1.83;;;31.10;96.70;;;;;;5050816;28;20044;-84
2022/06/16 10:44:10;;;;;;;4.18;1.80;;;31.00;96.70;;;;;;5075571;28;20067;-84
2022/06/16 10:46:47;;;;;;;2.83;1.95;;;31.00;96.70;;;;;;5063687;28;20118;-83
2022/06/16 10:49:19;;;;;;;3.22;1.73;;;31.20;96.70;;;;;;5051436;28;20626;-84
2022/06/16 10:51:53;;;;;;;3.60;2.00;;;31.50;96.70;;;;;;5046248;28;20045;-84
2022/06/16 10:54:28;;;;;;;6.38;1.83;;;31.50;96.70;;;;;;5065545;28;20041;-82
2022/06/16 10:57:16;;;;;;;3.65;1.80;;;31.60;96.70;;;;;;5039357;28;20045;-82
2022/06/16 10:59:49;;;;;;;6.72;1.90;;;31.60;95.30;;;;;;5049023;28;20048;-81
2022/06/16 11:02:22;;;;;;;4.07;1.77;;;31.70;93.80;;;;;;5042921;28;20556;-81
2022/06/16 11:04:56;;;;;;;2.83;1.70;;;31.70;93.80;;;;;;5031674;28;20052;-82
2022/06/16 11:07:33;;;;;;;2.97;2.00;;;31.90;94.10;;;;;;5027739;28;20098;-81
2022/06/16 11:10:06;;;;;;;5.57;1.75;;;32.00;95.00;;;;;;5048232;28;20086;-83
2022/06/16 11:12:37;;;;;;;3.90;2.22;;;32.10;95.70;;;;;;5058339;28;20437;-82
2022/06/16 11:15:16;;;;;;;3.83;1.75;;;32.10;94.90;;;;;;5049189;28;20037;-82
2022/06/16 11:17:50;;;;;;;5.53;2.03;;;32.10;94.00;;;;;;5050463;28;20040;-82
2022/06/16 11:20:30;;;;;;;4.55;1.98;;;32.10;92.90;;;;;;5026289;28;20056;-82
2022/06/16 11:23:07;;;;;;;4.03;2.10;;;32.20;93.30;;;;;;5051463;28;20056;-81
2022/06/16 11:25:37;;;;;;;3.47;1.80;;;32.40;93.00;;;;;;5067990;28;20047;-81
2022/06/16 11:28:14;;;;;;;4.75;1.98;;;32.50;92.40;;;;;;5072088;28;20059;-82
2022/06/16 11:30:52;;;;;;;3.22;1.77;;;32.60;92.30;;;;;;5041495;28;20160;-81
2022/06/16 11:36:19;;;;;;;3.90;1.67;;;32.70;89.70;;;;;;5039244;28;20056;-82
2022/06/16 11:38:55;;;;;;;4.03;1.73;;;32.60;89.00;;;;;;5043095;28;20045;-82
2022/06/16 11:41:26;;;;;;;3.53;1.65;;;32.70;89.40;;;;;;5049987;28;20049;-81
2022/06/16 11:44:09;;;;;;;3.92;2.15;;;32.80;90.00;;;;;;5049372;28;20045;-83
2022/06/16 11:46:43;;;;;;;3.33;2.08;;;33.00;89.30;;;;;;5037646;28;20055;-82
2022/06/16 11:49:25;;;;;;;4.50;2.10;;;33.00;89.50;;;;;;5042375;28;20045;-82
2022/06/16 11:52:02;;;;;;;3.20;2.03;;;33.00;89.60;;;;;;5062762;28;20071;-81
2022/06/16 11:54:44;;;;;;;5.68;1.63;;;33.00;90.20;;;;;;5050015;28;20140;-82
2022/06/16 11:57:26;;;;;;;5.55;1.88;;;32.80;89.90;;;;;;5049700;28;20050;-81
2022/06/16 12:00:18;;;;;;;3.97;1.92;;;33.10;88.60;;;;;;5039067;28;20594;-81
2022/06/16 12:03:37;;;;;;;3.25;1.73;;;32.90;90.10;;;;;;5024214;28;20050;-81
2022/06/16 12:06:24;;;;;;;4.25;2.15;;;33.10;91.00;;;;;;5044342;28;20037;-81
2022/06/16 12:09:14;;;;;;;9.05;2.45;;;33.20;91.50;;;;;;5049445;28;20048;-81
2022/06/16 12:11:57;;;;;;;3.27;1.80;;;33.50;90.40;;;;;;5048199;28;20053;-82
2022/06/16 12:14:36;;;;;;;4.55;1.98;;;33.40;90.50;;;;;;5049930;28;20852;-81
2022/06/16 12:17:13;;;;;;;2.70;1.98;;;33.50;89.70;;;;;;5022707;28;20056;-81
2022/06/16 12:19:48;;;;;;;4.32;1.88;;;33.50;89.60;;;;;;5040712;28;20049;-82
2022/06/16 12:22:27;;;;;;;3.42;1.88;;;33.50;89.30;;;;;;5039805;28;20103;-82
2022/06/16 12:25:01;;;;;;;2.00;1.80;;;33.70;88.40;;;;;;5047581;28;20075;-84
2022/06/16 12:27:44;;;;;;;3.92;2.22;;;33.60;88.40;;;;;;5043479;28;20085;-85
2022/06/16 12:30:16;;;;;;;6.95;2.20;;;33.70;88.90;;;;;;5043218;28;20056;-85
2022/06/16 12:32:56;;;;;;;4.18;2.20;;;33.80;89.00;;;;;;5041296;28;20048;-85
2022/06/16 12:35:31;;;;;;;2.90;2.08;;;33.80;88.90;;;;;;5041175;28;20506;-84
2022/06/16 12:38:05;;;;;;;3.63;2.25;;;33.80;90.40;;;;;;5043446;28;20120;-86
2022/06/16 12:40:38;;;;;;;4.55;2.03;;;33.80;89.80;;;;;;5034232;28;20033;-84
2022/06/16 12:43:14;;;;;;;5.13;1.80;;;33.80;90.30;;;;;;5024534;28;20136;-84
2022/06/16 12:45:46;;;;;;;6.38;2.20;;;33.90;89.90;;;;;;5044280;28;20041;-85
2022/06/16 12:48:19;;;;;;;4.43;1.70;;;33.90;90.00;;;;;;5052970;28;20122;-83
2022/06/16 12:50:54;;;;;;;4.43;1.75;;;33.80;89.90;;;;;;5038751;28;20057;-84
2022/06/16 12:53:28;;;;;;;3.93;1.67;;;33.80;89.90;;;;;;5057187;28;20119;-84
2022/06/16 12:56:04;;;;;;;2.55;2.03;;;33.90;89.30;;;;;;5043615;28;20445;-84
2022/06/16 12:58:41;;;;;;;4.30;2.00;;;34.00;89.30;;;;;;5049143;28;20073;-84
2022/06/16 13:01:13;;;;;;;2.50;1.42;;;33.80;89.40;;;;;;5044815;28;20136;-84
2022/06/16 13:03:48;;;;;;;5.40;2.20;;;34.10;89.80;;;;;;5048846;28;20559;-84
2022/06/16 13:06:19;;;;;;;3.20;1.40;;;34.30;90.30;;;;;;5047313;28;20045;-84
2022/06/16 13:08:51;;;;;;;3.88;1.77;;;34.30;90.20;;;;;;5027239;28;20052;-85
2022/06/16 13:11:25;;;;;;;5.43;1.65;;;34.40;89.60;;;;;;5031920;28;20057;-83
2022/06/16 13:13:58;;;;;;;3.55;1.75;;;34.30;90.80;;;;;;5037403;28;20071;-84
2022/06/16 13:16:29;;;;;;;4.43;1.80;;;34.30;90.90;;;;;;5041067;28;20140;-85
2022/06/16 13:19:01;;;;;;;11.30;1.92;;;34.20;91.10;;;;;;5042573;28;20344;-83
2022/06/16 13:21:32;;;;;;;5.07;1.92;;;34.20;91.70;;;;;;5043783;28;20048;-84
2022/06/16 13:24:10;;;;;;;3.25;1.58;;;34.20;91.10;;;;;;5041518;28;20115;-83
2022/06/16 13:26:41;;;;;;;4.30;1.92;;;34.10;91.50;;;;;;5044556;28;20611;-85
2022/06/16 13:29:18;;;;;;;4.10;1.70;;;34.10;91.90;;;;;;5046373;28;20049;-83
2022/06/16 13:32:19;;;;;;;2.72;1.40;;;34.00;91.30;;;;;;5044246;28;20053;-83
2022/06/16 13:34:54;;;;;;;33.97;3.65;;;34.00;91.90;;;;;;5039253;28;20904;-85
2022/06/16 13:37:44;;;;;;;5.43;1.63;;;33.90;91.60;;;;;;5043037;28;20041;-82
2022/06/16 13:40:16;;;;;;;3.83;1.60;;;34.00;92.00;;;;;;5036350;28;20490;-83
2022/06/16 13:43:00;;;;;;;3.28;1.88;;;34.10;92.50;;;;;;5047257;28;20038;-84
2022/06/16 13:45:57;;;;;;;3.55;2.03;;;34.20;92.20;;;;;;5036688;28;20052;-85
2022/06/16 13:48:46;;;;;;;;;;;34.20;92.30;;;;;;5042773;28;20564;-84
2022/06/16 13:51:41;;;;;;;6.40;2.10;;;34.40;92.30;;;;;;5048334;28;19924;-84